createdAt,value
2023-03-21T00:00:46.275Z,8.40
2023-03-21T00:03:14.506Z,8.40
2023-03-21T00:05:43.148Z,8.40
2023-03-21T00:08:11.166Z,8.30
2023-03-21T00:10:43.637Z,8.20
2023-03-21T00:13:16.011Z,8.20
2023-03-21T00:16:04.761Z,8.10
2023-03-21T00:18:37.973Z,8.10
2023-03-21T00:21:37.591Z,8.10
2023-03-21T00:23:55.006Z,8.10
2023-03-21T00:26:23.784Z,8.10
2023-03-21T00:28:52.154Z,8.10
2023-03-21T00:31:22.523Z,8.20
2023-03-21T00:33:51.467Z,8.20
2023-03-21T00:36:19.600Z,8.30
2023-03-21T00:38:47.388Z,8.30
2023-03-21T00:41:31.659Z,8.30
2023-03-21T00:44:05.723Z,8.30
2023-03-21T00:46:45.265Z,8.20
2023-03-21T00:49:15.120Z,8.20
2023-03-21T00:51:44.696Z,8.20
2023-03-21T00:54:13.507Z,8.20
2023-03-21T00:56:42.202Z,8.00
2023-03-21T00:59:11.257Z,8.00
2023-03-21T01:01:39.237Z,8.00
2023-03-21T01:04:14.307Z,8.00
2023-03-21T01:06:43.361Z,8.00
2023-03-21T01:09:14.039Z,8.10
2023-03-21T01:11:43.179Z,8.10
2023-03-21T01:14:22.985Z,7.90
2023-03-21T01:16:54.411Z,7.80
2023-03-21T01:19:29.083Z,7.80
2023-03-21T01:22:01.940Z,7.80
2023-03-21T01:24:29.957Z,7.70
2023-03-21T01:26:58.232Z,7.70
2023-03-21T01:29:26.053Z,7.70
2023-03-21T01:31:56.841Z,7.70
2023-03-21T01:34:24.862Z,7.60
2023-03-21T01:36:53.052Z,7.60
2023-03-21T01:39:22.722Z,7.60
2023-03-21T01:41:51.707Z,7.60
2023-03-21T01:44:22.785Z,7.50
2023-03-21T01:47:07.733Z,7.50
2023-03-21T01:49:50.748Z,7.60
2023-03-21T01:52:38.664Z,7.50
2023-03-21T01:55:15.066Z,7.40
2023-03-21T01:58:05.387Z,7.40
2023-03-21T02:00:50.550Z,7.40
2023-03-21T02:03:51.165Z,7.50
2023-03-21T02:06:44.887Z,7.40
2023-03-21T02:09:30.144Z,7.50
2023-03-21T02:11:58.114Z,7.50
2023-03-21T02:14:31.471Z,7.40
2023-03-21T02:17:11.515Z,7.30
2023-03-21T02:19:47.756Z,7.20
2023-03-21T02:22:33.591Z,7.10
2023-03-21T02:25:21.922Z,7.20
2023-03-21T02:28:00.631Z,7.10
2023-03-21T02:30:51.941Z,7.10
2023-03-21T02:33:40.447Z,7.20
2023-03-21T02:36:19.015Z,7.20
2023-03-21T02:38:50.091Z,7.20
2023-03-21T02:41:40.191Z,7.20
2023-03-21T02:44:41.313Z,7.10
2023-03-21T02:47:13.381Z,7.00
2023-03-21T02:49:44.857Z,7.10
2023-03-21T02:52:28.390Z,7.10
2023-03-21T02:55:14.808Z,7.00
2023-03-21T02:57:52.497Z,7.00
2023-03-21T03:00:22.686Z,7.00
2023-03-21T03:03:02.607Z,7.00
2023-03-21T03:05:38.396Z,7.10
2023-03-21T03:08:06.354Z,7.10
2023-03-21T03:10:44.526Z,7.10
2023-03-21T03:13:24.592Z,7.20
2023-03-21T03:16:08.885Z,7.30
2023-03-21T03:18:44.258Z,7.20
2023-03-21T03:21:19.253Z,7.20
2023-03-21T03:23:49.871Z,7.20
2023-03-21T03:26:17.658Z,7.30
2023-03-21T03:28:52.238Z,7.30
2023-03-21T03:31:27.042Z,7.30
2023-03-21T03:34:01.950Z,7.30
2023-03-21T03:36:36.954Z,7.20
2023-03-21T03:39:13.624Z,7.20
2023-03-21T03:42:10.137Z,7.20
2023-03-21T03:44:44.121Z,7.10
2023-03-21T03:47:26.255Z,7.10
2023-03-21T03:50:18.212Z,7.00
2023-03-21T03:52:57.137Z,7.10
2023-03-21T03:55:35.386Z,7.10
2023-03-21T03:58:21.167Z,7.00
2023-03-21T04:00:50.567Z,6.90
2023-03-21T04:03:19.760Z,6.90
2023-03-21T04:05:47.739Z,6.90
2023-03-21T04:08:17.452Z,6.90
2023-03-21T04:10:50.432Z,6.90
2023-03-21T04:13:18.557Z,6.90
2023-03-21T04:16:05.973Z,6.90
2023-03-21T04:18:33.970Z,6.90
2023-03-21T04:21:02.516Z,6.80
2023-03-21T04:23:31.607Z,6.80
2023-03-21T04:25:59.430Z,6.80
2023-03-21T04:28:35.005Z,6.80
2023-03-21T04:31:24.535Z,6.90
2023-03-21T04:33:57.203Z,6.90
2023-03-21T04:36:42.956Z,6.80
2023-03-21T04:39:15.632Z,6.80
2023-03-21T04:41:47.385Z,6.70
2023-03-21T04:44:16.132Z,6.70
2023-03-21T04:46:44.709Z,6.70
2023-03-21T04:49:13.812Z,6.80
2023-03-21T04:51:46.224Z,6.80
2023-03-21T04:54:18.888Z,6.70
2023-03-21T04:56:46.810Z,6.60
2023-03-21T04:59:16.606Z,6.60
2023-03-21T05:01:44.929Z,6.60
2023-03-21T05:04:16.494Z,6.60
2023-03-21T05:06:45.131Z,6.50
2023-03-21T05:09:13.158Z,6.40
2023-03-21T05:11:42.189Z,6.40
2023-03-21T05:14:15.230Z,6.40
2023-03-21T05:16:51.567Z,6.40
2023-03-21T05:19:21.727Z,6.30
2023-03-21T05:21:51.194Z,6.20
2023-03-21T05:24:26.596Z,6.30
2023-03-21T05:27:01.561Z,6.30
2023-03-21T05:29:32.063Z,6.30
2023-03-21T05:32:04.092Z,6.30
2023-03-21T05:34:33.186Z,6.40
2023-03-21T05:37:02.012Z,6.40
2023-03-21T05:39:51.378Z,6.40
2023-03-21T05:42:25.928Z,6.50
2023-03-21T05:44:54.666Z,6.60
2023-03-21T05:47:29.901Z,6.70
2023-03-21T05:50:00.309Z,6.80
2023-03-21T05:52:30.667Z,6.80
2023-03-21T05:54:59.794Z,6.90
2023-03-21T05:57:29.952Z,6.90
2023-03-21T06:00:04.352Z,6.90
2023-03-21T06:02:43.144Z,7.00
2023-03-21T06:05:28.980Z,7.00
2023-03-21T06:07:56.965Z,7.00
2023-03-21T06:10:25.719Z,7.10
2023-03-21T06:12:54.023Z,7.20
2023-03-21T06:15:29.493Z,7.30
2023-03-21T06:18:10.148Z,7.50
2023-03-21T06:20:40.884Z,7.60
2023-03-21T06:23:16.903Z,7.70
2023-03-21T06:25:49.085Z,7.90
2023-03-21T06:28:17.353Z,8.00
2023-03-21T06:30:45.134Z,8.10
2023-03-21T06:33:20.981Z,8.30
2023-03-21T06:35:53.235Z,8.60
2023-03-21T06:38:21.945Z,8.80
2023-03-21T06:40:50.679Z,8.90
2023-03-21T06:43:18.639Z,9.10
2023-03-21T06:45:47.337Z,9.20
2023-03-21T06:48:15.316Z,9.40
2023-03-21T06:50:50.527Z,9.40
2023-03-21T06:53:21.777Z,9.50
2023-03-21T06:56:13.306Z,9.50
2023-03-21T06:58:42.403Z,9.60
2023-03-21T07:01:20.109Z,9.60
2023-03-21T07:04:01.466Z,9.60
2023-03-21T07:06:31.344Z,9.70
2023-03-21T07:09:00.030Z,9.60
2023-03-21T07:11:28.097Z,9.60
2023-03-21T07:13:57.144Z,9.70
2023-03-21T07:16:26.097Z,9.80
2023-03-21T07:18:54.068Z,9.90
2023-03-21T07:21:21.959Z,10.00
2023-03-21T07:23:51.346Z,10.20
2023-03-21T07:26:19.496Z,10.30
2023-03-21T07:28:47.433Z,10.40
2023-03-21T07:31:16.649Z,10.30
2023-03-21T07:33:44.799Z,10.30
2023-03-21T07:36:16.634Z,10.40
2023-03-21T07:38:46.929Z,10.50
2023-03-21T07:43:51.746Z,10.40
2023-03-21T07:46:19.944Z,11.00
2023-03-21T07:48:49.724Z,12.10
2023-03-21T07:51:17.595Z,13.40
2023-03-21T07:53:49.518Z,14.50
2023-03-21T07:56:17.355Z,15.30
2023-03-21T07:58:45.111Z,15.70
2023-03-21T08:01:13.012Z,16.50
2023-03-21T08:03:42.147Z,16.60
2023-03-21T08:06:13.465Z,16.90
2023-03-21T08:08:48.159Z,16.70
2023-03-21T08:11:16.627Z,17.20
2023-03-21T08:13:45.423Z,18.10
2023-03-21T08:16:19.675Z,19.00
2023-03-21T08:18:49.932Z,19.40
2023-03-21T08:21:22.267Z,19.10
2023-03-21T08:23:54.587Z,18.70
2023-03-21T08:26:22.580Z,18.70
2023-03-21T08:28:50.379Z,19.30
2023-03-21T08:31:19.129Z,19.60
2023-03-21T08:33:47.085Z,19.30
2023-03-21T08:36:14.989Z,18.50
2023-03-21T08:38:42.791Z,18.50
2023-03-21T08:41:10.605Z,18.70
2023-03-21T08:43:38.507Z,19.00
2023-03-21T08:46:06.681Z,18.60
2023-03-21T08:48:34.695Z,19.00
2023-03-21T08:51:02.604Z,18.80
2023-03-21T08:53:30.556Z,19.20
2023-03-21T08:55:58.406Z,19.70
2023-03-21T08:58:26.582Z,20.20
2023-03-21T09:00:54.402Z,20.70
2023-03-21T09:03:22.263Z,20.70
2023-03-21T09:05:51.113Z,21.50
2023-03-21T09:08:19.118Z,22.30
2023-03-21T09:10:46.975Z,22.10
2023-03-21T09:13:14.778Z,22.50
2023-03-21T09:15:42.673Z,22.50
2023-03-21T09:18:19.203Z,23.30
2023-03-21T09:20:48.280Z,23.20
2023-03-21T09:23:16.406Z,23.80
2023-03-21T09:25:50.140Z,23.80
2023-03-21T09:28:22.449Z,24.50
2023-03-21T09:30:50.332Z,23.50
2023-03-21T09:33:20.406Z,22.10
2023-03-21T09:35:51.823Z,20.50
2023-03-21T09:38:24.361Z,20.00
2023-03-21T09:41:19.440Z,19.00
2023-03-21T09:44:05.938Z,18.50
2023-03-21T09:46:45.441Z,18.90
2023-03-21T09:49:18.095Z,20.10
2023-03-21T09:51:53.834Z,20.70
2023-03-21T09:54:22.028Z,20.70
2023-03-21T09:56:50.697Z,21.00
2023-03-21T09:59:42.325Z,21.40
2023-03-21T10:02:22.748Z,21.40
2023-03-21T10:04:51.078Z,21.30
2023-03-21T10:07:20.959Z,20.70
2023-03-21T10:09:50.073Z,20.70
2023-03-21T10:12:23.314Z,20.60
2023-03-21T10:14:58.266Z,19.90
2023-03-21T10:17:38.770Z,19.70
2023-03-21T10:20:18.939Z,19.90
2023-03-21T10:22:47.850Z,19.90
2023-03-21T10:25:17.661Z,19.50
2023-03-21T10:27:46.355Z,19.70
2023-03-21T10:30:21.187Z,19.60
2023-03-21T10:32:49.134Z,19.60
2023-03-21T10:35:17.071Z,19.60
2023-03-21T10:37:45.082Z,19.60
2023-03-21T10:40:17.148Z,19.30
2023-03-21T10:42:45.613Z,18.90
2023-03-21T10:45:18.764Z,19.10
2023-03-21T10:47:49.224Z,19.40
2023-03-21T10:50:26.003Z,19.20
2023-03-21T10:52:56.972Z,19.00
2023-03-21T10:55:29.819Z,18.90
2023-03-21T10:57:59.978Z,18.50
2023-03-21T11:00:35.167Z,18.70
2023-03-21T11:03:04.419Z,18.90
2023-03-21T11:05:54.176Z,19.30
2023-03-21T11:08:22.102Z,19.60
2023-03-21T11:10:52.719Z,19.60
2023-03-21T11:13:25.149Z,19.80
2023-03-21T11:16:01.869Z,19.70
2023-03-21T11:18:34.870Z,19.90
2023-03-21T11:21:07.178Z,19.80
2023-03-21T11:23:36.396Z,19.70
2023-03-21T11:26:04.799Z,19.70
2023-03-21T11:28:40.676Z,20.10
2023-03-21T11:31:11.660Z,20.40
2023-03-21T11:33:52.893Z,20.20
2023-03-21T11:36:24.517Z,20.20
2023-03-21T11:39:00.243Z,20.20
2023-03-21T11:41:31.406Z,20.10
2023-03-21T11:43:59.765Z,20.50
2023-03-21T11:46:28.812Z,20.80
2023-03-21T11:48:58.053Z,20.90
2023-03-21T11:51:38.153Z,20.80
2023-03-21T11:54:25.110Z,20.80
2023-03-21T11:56:55.265Z,20.70
2023-03-21T11:59:33.131Z,20.40
2023-03-21T12:02:07.346Z,19.90
2023-03-21T12:04:42.400Z,19.90
2023-03-21T12:07:17.495Z,20.20
2023-03-21T12:10:04.501Z,20.30
2023-03-21T12:12:58.792Z,20.30
2023-03-21T12:15:38.774Z,20.60
2023-03-21T12:18:12.947Z,20.60
2023-03-21T12:20:40.720Z,20.40
2023-03-21T12:23:32.814Z,20.60
2023-03-21T12:26:04.094Z,21.00
2023-03-21T12:28:41.412Z,21.00
2023-03-21T12:31:13.146Z,21.10
2023-03-21T12:33:50.967Z,21.10
2023-03-21T12:36:42.453Z,20.70
2023-03-21T12:39:30.922Z,20.80
2023-03-21T12:42:01.915Z,20.80
2023-03-21T12:44:33.941Z,21.10
2023-03-21T12:47:03.807Z,21.00
2023-03-21T12:49:32.113Z,21.00
2023-03-21T12:52:05.879Z,21.10
2023-03-21T12:54:39.150Z,21.10
2023-03-21T12:57:25.510Z,20.80
2023-03-21T13:00:14.531Z,20.30
2023-03-21T13:02:48.702Z,19.50
2023-03-21T13:05:21.947Z,19.40
2023-03-21T13:08:19.416Z,18.90
2023-03-21T13:10:47.438Z,18.90
2023-03-21T13:13:23.822Z,18.90
2023-03-21T13:15:55.106Z,19.20
2023-03-21T13:18:41.925Z,19.60
2023-03-21T13:21:13.857Z,19.60
2023-03-21T13:23:41.779Z,19.30
2023-03-21T13:26:10.977Z,19.40
2023-03-21T13:28:40.597Z,19.30
2023-03-21T13:31:19.493Z,19.50
2023-03-21T13:33:49.862Z,19.60
2023-03-21T13:36:23.272Z,19.40
2023-03-21T13:38:52.835Z,19.40
2023-03-21T13:41:23.354Z,19.60
2023-03-21T13:43:54.114Z,19.70
2023-03-21T13:46:22.268Z,19.80
2023-03-21T13:49:00.120Z,19.60
2023-03-21T13:51:44.906Z,19.70
2023-03-21T13:54:15.734Z,19.60
2023-03-21T13:56:49.921Z,19.30
2023-03-21T13:59:37.518Z,18.90
2023-03-21T14:02:15.888Z,19.20
2023-03-21T14:05:03.661Z,19.30
2023-03-21T14:07:43.622Z,19.20
2023-03-21T14:10:23.398Z,19.20
2023-03-21T14:12:52.241Z,19.20
2023-03-21T14:15:24.999Z,19.20
2023-03-21T14:17:55.193Z,19.00
2023-03-21T14:20:27.575Z,18.90
2023-03-21T14:22:55.878Z,18.70
2023-03-21T14:25:29.163Z,18.50
2023-03-21T14:28:01.769Z,18.40
2023-03-21T14:30:33.436Z,18.50
2023-03-21T14:33:04.086Z,18.60
2023-03-21T14:35:33.797Z,18.40
2023-03-21T14:38:05.449Z,18.30
2023-03-21T14:40:33.359Z,18.20
2023-03-21T14:43:04.886Z,18.40
2023-03-21T14:45:37.675Z,18.40
2023-03-21T14:48:10.168Z,18.50
2023-03-21T14:50:48.095Z,18.70
2023-03-21T14:53:17.294Z,18.50
2023-03-21T14:55:47.357Z,18.30
2023-03-21T14:58:17.015Z,18.20
2023-03-21T15:00:44.927Z,18.30
2023-03-21T15:03:13.742Z,18.30
2023-03-21T15:05:42.727Z,18.50
2023-03-21T15:08:15.986Z,18.50
2023-03-21T15:11:05.921Z,18.20
2023-03-21T15:13:39.972Z,17.90
2023-03-21T15:16:15.744Z,17.80
2023-03-21T15:18:44.438Z,17.80
2023-03-21T15:21:17.920Z,17.80
2023-03-21T15:23:47.858Z,17.70
2023-03-21T15:26:17.836Z,17.70
2023-03-21T15:28:50.389Z,17.50
2023-03-21T15:31:23.094Z,17.40
2023-03-21T15:33:52.231Z,17.40
2023-03-21T15:36:22.435Z,17.20
2023-03-21T15:38:50.876Z,17.00
2023-03-21T15:41:21.802Z,16.90
2023-03-21T15:43:55.475Z,16.90
2023-03-21T15:46:44.920Z,16.80
2023-03-21T15:49:14.867Z,16.70
2023-03-21T15:51:47.858Z,16.70
2023-03-21T15:54:25.731Z,16.60
2023-03-21T15:56:55.994Z,16.70
2023-03-21T15:59:26.158Z,16.60
2023-03-21T16:01:54.055Z,16.60
2023-03-21T16:04:22.160Z,16.50
2023-03-21T16:06:54.756Z,16.40
2023-03-21T16:09:25.598Z,16.30
2023-03-21T16:11:55.471Z,16.20
2023-03-21T16:14:23.839Z,16.20
2023-03-21T16:16:51.829Z,16.20
2023-03-21T16:19:19.771Z,16.30
2023-03-21T16:21:47.979Z,16.20
2023-03-21T16:24:15.814Z,16.20
2023-03-21T16:26:47.055Z,16.20
2023-03-21T16:29:15.709Z,16.00
2023-03-21T16:31:43.649Z,16.00
2023-03-21T16:34:11.904Z,16.00
2023-03-21T16:36:41.410Z,16.00
2023-03-21T16:39:19.906Z,16.00
2023-03-21T16:41:48.346Z,15.90
2023-03-21T16:44:16.414Z,15.90
2023-03-21T16:46:48.632Z,15.80
2023-03-21T16:49:27.211Z,15.80
2023-03-21T16:51:56.003Z,15.70
2023-03-21T16:54:23.979Z,15.60
2023-03-21T16:56:56.333Z,15.60
2023-03-21T16:59:24.141Z,15.60
2023-03-21T17:01:52.190Z,15.50
2023-03-21T17:04:21.660Z,15.50
2023-03-21T17:06:51.136Z,15.40
2023-03-21T17:09:20.763Z,15.30
2023-03-21T17:11:48.738Z,15.20
2023-03-21T17:14:22.252Z,15.10
2023-03-21T17:16:50.619Z,15.00
2023-03-21T17:19:20.114Z,14.90
2023-03-21T17:21:50.744Z,14.80
2023-03-21T17:24:18.688Z,14.60
2023-03-21T17:26:46.724Z,14.60
2023-03-21T17:29:15.286Z,14.50
2023-03-21T17:31:43.688Z,14.50
2023-03-21T17:34:12.184Z,14.30
2023-03-21T17:36:41.375Z,14.20
2023-03-21T17:39:12.822Z,14.10
2023-03-21T17:41:40.969Z,14.00
2023-03-21T17:44:08.786Z,14.00
2023-03-21T17:46:38.243Z,14.00
2023-03-21T17:49:07.156Z,13.90
2023-03-21T17:51:35.050Z,13.90
2023-03-21T17:54:02.910Z,13.90
2023-03-21T17:56:34.501Z,13.80
2023-03-21T17:59:06.885Z,13.70
2023-03-21T18:01:36.413Z,13.60
2023-03-21T18:04:06.518Z,13.60
2023-03-21T18:06:35.191Z,13.50
2023-03-21T18:09:07.828Z,13.50
2023-03-21T18:11:35.678Z,13.50
2023-03-21T18:14:15.398Z,13.50
2023-03-21T18:16:45.033Z,13.50
2023-03-21T18:19:14.239Z,13.50
2023-03-21T18:21:45.262Z,13.50
2023-03-21T18:24:14.418Z,13.50
2023-03-21T18:26:42.836Z,13.50
2023-03-21T18:32:08.928Z,13.50
2023-03-21T18:34:40.226Z,13.40
2023-03-21T18:37:09.126Z,13.40
2023-03-21T18:39:38.273Z,13.40
2023-03-21T18:42:07.053Z,13.40
2023-03-21T18:44:46.643Z,13.40
2023-03-21T18:47:14.865Z,13.30
2023-03-21T18:50:13.215Z,13.20
2023-03-21T18:52:30.776Z,13.00
2023-03-21T18:55:02.840Z,12.80
2023-03-21T18:57:36.877Z,12.70
2023-03-21T19:00:29.675Z,12.70
2023-03-21T19:03:17.001Z,12.60
2023-03-21T19:05:48.314Z,12.60
2023-03-21T19:08:20.272Z,12.60
2023-03-21T19:10:48.736Z,12.60
2023-03-21T19:13:16.686Z,12.60
2023-03-21T19:15:45.836Z,12.60
2023-03-21T19:21:03.910Z,12.50
2023-03-21T19:23:50.121Z,12.40
2023-03-21T19:26:21.876Z,12.40
2023-03-21T19:28:50.132Z,12.30
2023-03-21T19:31:19.309Z,12.20
2023-03-21T19:33:49.895Z,12.20
2023-03-21T19:36:22.787Z,12.30
2023-03-21T19:38:51.691Z,12.30
2023-03-21T19:41:20.856Z,12.40
2023-03-21T19:43:54.832Z,12.40
2023-03-21T19:46:25.805Z,12.50
2023-03-21T19:48:56.470Z,12.50
2023-03-21T19:51:29.838Z,12.40
2023-03-21T19:54:02.631Z,12.40
2023-03-21T19:56:46.928Z,12.30
2023-03-21T19:59:15.767Z,12.20
2023-03-21T20:01:44.062Z,12.10
2023-03-21T20:04:12.047Z,12.00
2023-03-21T20:06:39.803Z,11.90
2023-03-21T20:11:59.029Z,12.00
2023-03-21T20:14:27.221Z,12.00
2023-03-21T20:16:56.578Z,11.90
2023-03-21T20:19:24.480Z,11.90
2023-03-21T20:21:58.823Z,11.90
2023-03-21T20:24:28.662Z,11.90
2023-03-21T20:26:57.238Z,11.90
2023-03-21T20:32:16.758Z,12.00
2023-03-21T20:34:47.880Z,12.10
2023-03-21T20:37:15.900Z,12.20
2023-03-21T20:39:43.757Z,12.10
2023-03-21T20:42:11.672Z,12.10
2023-03-21T20:44:56.892Z,12.00
2023-03-21T20:47:26.063Z,11.90
2023-03-21T20:49:54.099Z,11.90
2023-03-21T20:55:12.501Z,11.90
2023-03-21T20:57:41.391Z,11.90
2023-03-21T21:00:14.848Z,11.80
2023-03-21T21:02:44.076Z,11.80
2023-03-21T21:05:34.493Z,11.80
2023-03-21T21:08:02.742Z,11.80
2023-03-21T21:10:33.826Z,11.80
2023-03-21T21:13:02.368Z,11.80
2023-03-21T21:15:30.181Z,11.80
2023-03-21T21:18:08.358Z,11.80
2023-03-21T21:20:38.149Z,11.80
2023-03-21T21:23:06.315Z,11.80
2023-03-21T21:25:34.717Z,11.80
2023-03-21T21:28:02.893Z,11.80
2023-03-21T21:30:31.484Z,11.80
2023-03-21T21:33:01.765Z,11.80
2023-03-21T21:35:29.836Z,11.70
2023-03-21T21:37:57.687Z,11.80
2023-03-21T21:40:26.679Z,11.60
2023-03-21T21:42:54.721Z,11.60
2023-03-21T21:45:22.678Z,11.70
2023-03-21T21:47:50.620Z,11.60
2023-03-21T21:50:20.335Z,11.60
2023-03-21T21:52:55.208Z,11.60
2023-03-21T21:55:23.245Z,11.60
2023-03-21T21:57:59.207Z,11.50
2023-03-21T22:00:31.842Z,11.50
2023-03-21T22:03:00.563Z,11.50
2023-03-21T22:05:29.004Z,11.40
2023-03-21T22:07:57.339Z,11.40
2023-03-21T22:10:26.220Z,11.40
2023-03-21T22:12:54.311Z,11.50
2023-03-21T22:15:24.919Z,11.50
2023-03-21T22:17:52.792Z,11.40
2023-03-21T22:20:21.649Z,11.40
2023-03-21T22:22:49.507Z,11.40
2023-03-21T22:25:17.838Z,11.40
2023-03-21T22:27:45.775Z,11.40
2023-03-21T22:30:14.845Z,11.40
2023-03-21T22:32:42.842Z,11.40
2023-03-21T22:35:11.104Z,11.40
2023-03-21T22:37:41.049Z,11.40
2023-03-21T22:40:11.056Z,11.30
2023-03-21T22:42:40.669Z,11.30
2023-03-21T22:45:09.822Z,11.30
2023-03-21T22:47:38.116Z,11.10
2023-03-21T22:50:07.198Z,10.90
2023-03-21T22:52:35.023Z,10.70
2023-03-21T22:55:02.904Z,10.70
2023-03-21T22:57:30.735Z,10.60
2023-03-21T22:59:58.632Z,10.50
2023-03-21T23:02:26.734Z,10.40
2023-03-21T23:04:54.731Z,10.30
2023-03-21T23:07:22.484Z,10.20
2023-03-21T23:09:50.481Z,10.20
2023-03-21T23:12:18.354Z,10.30
2023-03-21T23:14:46.477Z,10.40
2023-03-21T23:17:14.299Z,10.30
2023-03-21T23:19:42.171Z,10.30
2023-03-21T23:22:10.037Z,10.40
2023-03-21T23:24:37.856Z,10.40
2023-03-21T23:27:05.768Z,10.40
2023-03-21T23:29:33.763Z,10.40
2023-03-21T23:32:02.054Z,10.40
2023-03-21T23:34:29.943Z,10.40
2023-03-21T23:36:57.809Z,10.40
2023-03-21T23:39:27.540Z,10.20
2023-03-21T23:41:55.449Z,10.00
2023-03-21T23:44:23.320Z,10.10
2023-03-21T23:46:51.229Z,10.00
2023-03-21T23:49:19.222Z,9.90
2023-03-21T23:51:48.184Z,9.80
2023-03-21T23:54:16.146Z,9.80
2023-03-21T23:56:44.246Z,9.90
2023-03-21T23:59:14.887Z,9.80
